sensor_id;sensor_type;location;lat;lon;timestamp;P1;durP1;ratioP1;P2;durP2;ratioP2
63406;SDS011;49543;45.892;10.838;2022-11-09T12:42:03;5.15;;;4.63;;
63406;SDS011;49543;45.892;10.838;2022-11-09T18:31:51;6.63;;;5.93;;
63406;SDS011;49543;45.892;10.838;2022-11-09T18:34:16;8.18;;;5.78;;
63406;SDS011;49543;45.892;10.838;2022-11-09T18:36:42;8.80;;;5.55;;
63406;SDS011;49543;45.892;10.838;2022-11-09T18:39:07;7.15;;;5.82;;
63406;SDS011;49543;45.892;10.838;2022-11-09T18:41:33;10.40;;;7.07;;
63406;SDS011;49543;45.892;10.838;2022-11-09T18:43:58;10.15;;;7.47;;
63406;SDS011;49543;45.892;10.838;2022-11-09T18:46:24;9.52;;;8.27;;
63406;SDS011;49543;45.892;10.838;2022-11-09T18:51:19;11.65;;;8.50;;
63406;SDS011;49543;45.892;10.838;2022-11-09T18:53:45;9.00;;;8.10;;
63406;SDS011;49543;45.892;10.838;2022-11-09T18:56:16;11.65;;;8.05;;
63406;SDS011;49543;45.892;10.838;2022-11-09T18:58:46;9.43;;;8.23;;
63406;SDS011;49543;45.892;10.838;2022-11-09T19:01:12;10.15;;;8.23;;
63406;SDS011;49543;45.892;10.838;2022-11-09T19:03:39;9.75;;;7.65;;
63406;SDS011;49543;45.892;10.838;2022-11-09T19:06:15;9.18;;;7.63;;
63406;SDS011;49543;45.892;10.838;2022-11-09T19:08:42;11.63;;;7.75;;
63406;SDS011;49543;45.892;10.838;2022-11-09T19:11:26;9.88;;;7.72;;
63406;SDS011;49543;45.892;10.838;2022-11-09T19:13:54;9.45;;;7.50;;
63406;SDS011;49543;45.892;10.838;2022-11-09T19:16:19;12.05;;;9.05;;
63406;SDS011;49543;45.892;10.838;2022-11-09T19:18:45;11.65;;;8.10;;
63406;SDS011;49543;45.892;10.838;2022-11-09T19:23:52;9.32;;;6.97;;
63406;SDS011;49543;45.892;10.838;2022-11-09T19:26:18;8.20;;;6.60;;
63406;SDS011;49543;45.892;10.838;2022-11-09T19:28:44;10.55;;;7.20;;
63406;SDS011;49543;45.892;10.838;2022-11-09T19:31:13;7.80;;;7.00;;
63406;SDS011;49543;45.892;10.838;2022-11-09T19:33:40;11.43;;;7.60;;
63406;SDS011;49543;45.892;10.838;2022-11-09T19:36:05;10.07;;;7.70;;
63406;SDS011;49543;45.892;10.838;2022-11-09T19:38:32;9.73;;;7.35;;
63406;SDS011;49543;45.892;10.838;2022-11-09T19:40:58;10.85;;;7.93;;
63406;SDS011;49543;45.892;10.838;2022-11-09T19:43:23;9.95;;;7.55;;
63406;SDS011;49543;45.892;10.838;2022-11-09T19:45:48;12.43;;;8.70;;
63406;SDS011;49543;45.892;10.838;2022-11-09T19:48:14;8.85;;;7.43;;
63406;SDS011;49543;45.892;10.838;2022-11-09T19:50:44;11.15;;;7.20;;
63406;SDS011;49543;45.892;10.838;2022-11-09T19:53:11;11.60;;;7.45;;
63406;SDS011;49543;45.892;10.838;2022-11-09T19:55:37;9.95;;;7.25;;
63406;SDS011;49543;45.892;10.838;2022-11-09T19:58:03;9.90;;;7.47;;
63406;SDS011;49543;45.892;10.838;2022-11-09T20:00:34;9.02;;;7.03;;
63406;SDS011;49543;45.892;10.838;2022-11-09T20:03:01;9.40;;;7.32;;
63406;SDS011;49543;45.892;10.838;2022-11-09T20:05:27;12.13;;;8.18;;
63406;SDS011;49543;45.892;10.838;2022-11-09T20:07:55;9.90;;;7.60;;
63406;SDS011;49543;45.892;10.838;2022-11-09T20:10:21;11.95;;;7.60;;
63406;SDS011;49543;45.892;10.838;2022-11-09T20:12:47;7.53;;;6.75;;
63406;SDS011;49543;45.892;10.838;2022-11-09T20:15:19;7.32;;;6.63;;
63406;SDS011;49543;45.892;10.838;2022-11-09T20:17:45;9.32;;;7.25;;
63406;SDS011;49543;45.892;10.838;2022-11-09T20:20:11;8.30;;;7.30;;
63406;SDS011;49543;45.892;10.838;2022-11-09T20:22:40;9.38;;;8.43;;
63406;SDS011;49543;45.892;10.838;2022-11-09T20:25:09;10.65;;;6.78;;
63406;SDS011;49543;45.892;10.838;2022-11-09T20:27:35;10.88;;;6.57;;
63406;SDS011;49543;45.892;10.838;2022-11-09T20:30:01;8.68;;;5.93;;
63406;SDS011;49543;45.892;10.838;2022-11-09T20:32:27;7.75;;;7.03;;
63406;SDS011;49543;45.892;10.838;2022-11-09T20:34:52;9.18;;;6.63;;
63406;SDS011;49543;45.892;10.838;2022-11-09T20:37:18;8.07;;;6.70;;
63406;SDS011;49543;45.892;10.838;2022-11-09T20:39:43;8.30;;;7.20;;
63406;SDS011;49543;45.892;10.838;2022-11-09T20:42:21;9.25;;;7.65;;
63406;SDS011;49543;45.892;10.838;2022-11-09T20:45:13;11.60;;;6.88;;
63406;SDS011;49543;45.892;10.838;2022-11-09T20:47:39;9.07;;;7.25;;
63406;SDS011;49543;45.892;10.838;2022-11-09T20:50:05;8.90;;;7.25;;
63406;SDS011;49543;45.892;10.838;2022-11-09T20:52:31;8.90;;;7.35;;
63406;SDS011;49543;45.892;10.838;2022-11-09T20:54:56;11.45;;;8.40;;
63406;SDS011;49543;45.892;10.838;2022-11-09T20:57:23;8.82;;;7.95;;
63406;SDS011;49543;45.892;10.838;2022-11-09T20:59:49;9.88;;;8.27;;
63406;SDS011;49543;45.892;10.838;2022-11-09T21:02:16;10.38;;;8.50;;
63406;SDS011;49543;45.892;10.838;2022-11-09T21:04:42;11.98;;;8.93;;
63406;SDS011;49543;45.892;10.838;2022-11-09T21:07:07;9.77;;;8.30;;
63406;SDS011;49543;45.892;10.838;2022-11-09T21:09:33;10.85;;;8.18;;
63406;SDS011;49543;45.892;10.838;2022-11-09T21:11:58;10.82;;;8.05;;
63406;SDS011;49543;45.892;10.838;2022-11-09T21:14:42;10.95;;;8.60;;
63406;SDS011;49543;45.892;10.838;2022-11-09T21:17:08;11.05;;;8.80;;
63406;SDS011;49543;45.892;10.838;2022-11-09T21:19:35;12.13;;;8.73;;
63406;SDS011;49543;45.892;10.838;2022-11-09T21:22:00;8.80;;;7.85;;
63406;SDS011;49543;45.892;10.838;2022-11-09T21:24:25;9.65;;;8.13;;
63406;SDS011;49543;45.892;10.838;2022-11-09T21:27:09;12.38;;;9.07;;
63406;SDS011;49543;45.892;10.838;2022-11-09T21:30:10;11.32;;;8.85;;
63406;SDS011;49543;45.892;10.838;2022-11-09T21:32:36;10.95;;;8.57;;
63406;SDS011;49543;45.892;10.838;2022-11-09T21:35:02;11.57;;;9.48;;
63406;SDS011;49543;45.892;10.838;2022-11-09T21:37:28;12.90;;;9.57;;
63406;SDS011;49543;45.892;10.838;2022-11-09T21:39:54;10.98;;;9.32;;
63406;SDS011;49543;45.892;10.838;2022-11-09T21:42:19;10.35;;;8.63;;
63406;SDS011;49543;45.892;10.838;2022-11-09T21:44:44;12.10;;;9.32;;
63406;SDS011;49543;45.892;10.838;2022-11-09T21:47:10;12.02;;;9.10;;
63406;SDS011;49543;45.892;10.838;2022-11-09T21:49:35;11.88;;;9.65;;
63406;SDS011;49543;45.892;10.838;2022-11-09T21:52:01;11.50;;;9.60;;
63406;SDS011;49543;45.892;10.838;2022-11-09T21:54:27;11.18;;;9.77;;
63406;SDS011;49543;45.892;10.838;2022-11-09T21:56:53;13.38;;;10.43;;
63406;SDS011;49543;45.892;10.838;2022-11-09T21:59:18;11.00;;;9.55;;
63406;SDS011;49543;45.892;10.838;2022-11-09T22:01:44;11.48;;;9.82;;
63406;SDS011;49543;45.892;10.838;2022-11-09T22:04:10;12.68;;;9.38;;
63406;SDS011;49543;45.892;10.838;2022-11-09T22:06:36;11.27;;;9.10;;
63406;SDS011;49543;45.892;10.838;2022-11-09T22:09:10;12.57;;;9.05;;
63406;SDS011;49543;45.892;10.838;2022-11-09T22:11:38;11.82;;;9.57;;
63406;SDS011;49543;45.892;10.838;2022-11-09T22:14:24;11.60;;;9.20;;
63406;SDS011;49543;45.892;10.838;2022-11-09T22:17:08;11.18;;;9.98;;
63406;SDS011;49543;45.892;10.838;2022-11-09T22:19:35;10.75;;;9.32;;
63406;SDS011;49543;45.892;10.838;2022-11-09T22:22:20;11.77;;;10.48;;
63406;SDS011;49543;45.892;10.838;2022-11-09T22:24:46;14.10;;;10.18;;
63406;SDS011;49543;45.892;10.838;2022-11-09T22:27:11;12.15;;;10.55;;
63406;SDS011;49543;45.892;10.838;2022-11-09T22:29:37;10.65;;;9.50;;
63406;SDS011;49543;45.892;10.838;2022-11-09T22:32:02;12.35;;;9.35;;
63406;SDS011;49543;45.892;10.838;2022-11-09T22:34:28;12.32;;;10.60;;
63406;SDS011;49543;45.892;10.838;2022-11-09T22:36:53;13.32;;;10.50;;
63406;SDS011;49543;45.892;10.838;2022-11-09T22:39:19;14.23;;;11.05;;
63406;SDS011;49543;45.892;10.838;2022-11-09T22:41:45;15.82;;;12.73;;
63406;SDS011;49543;45.892;10.838;2022-11-09T22:44:10;13.23;;;11.55;;
